Calion, AR (71724)

7:06 PM CDT on September 17, 2014 (GMT -0500)
Hampton, AR | Change Station
CLOSE
Current Station
Personal Weather Station
Location: Hampton, AR
Elevation: 200 ft
Nearby Weather Stations

Elev 200 ft 33.54 °N, 92.47 °W | Updated 11 seconds ago

Clear
Clear
80.4 °F
Feels Like 86 °F
N
0.7
Wind Variable Wind from North
Gusts 1.6 mph

Today
High -- | Low -- °F
--% Chance of Precip.
Yesterday
High -- | Low -- °F
Precip. -- in
6:55 AM 7:13 PM
Waning Crescent, 32% visible
Pressure 29.90 in
Visibility 10.0 miles
Clouds Clear
Heat Index 86 °F
Dew Point 76 °F
Humidity 85%
Rainfall 0.00 in
Snow Depth Not available.
UV 0 out of 12
Pollen 10.00 out of 12
Air Quality Not available.
Flu Activity Not available.
METAR KELD 172353Z AUTO 06003KT 10SM CLR 27/22 A2991 RMK AO2 SLP124 T02720222 10322 20272 55002

More Conditions Fewer Conditions

Pressure 29.90 in
Visibility 10.0 miles
Clouds Clear
Heat Index 86 °F
Dew Point 76 °F
Humidity 85%
Rainfall 0.00 in
Snow Depth Not available.
UV 0 out of 12
Pollen 10.00 out of 12
Air Quality Not available.
Flu Activity Not available.
METAR KELD 172353Z AUTO 06003KT 10SM CLR 27/22 A2991 RMK AO2 SLP124 T02720222 10322 20272 55002

More Conditions Fewer Conditions

Nowcast | as of 6:53 PM CDT on September 17, 2014

Widely scattered showers and isolated thunderstorms continue over parts the four state area early this evening. These storms are nearly stationary. Rainfall amounts will be low ranging from a trace to a few hundredths of an inch...some isolated higher amounts will be possible.

×

10-Day Weather Forecast

Almanac

Astronomy

Sep. 17, 2014 Rise Set
Actual Time 6:55 AM CDT 7:13 PM CDT
Civil Twilight 6:30 AM CDT 7:38 PM CDT
Nautical Twilight 6:01 AM CDT 8:07 PM CDT
Astronomical Twilight 5:31 AM CDT 8:36 PM CDT
Moon 1:08 AM CDT (9/17) 3:11 PM CDT (9/17)
Length of Visible Light 13h 08m
Length of Day
12h 18m
Tomorrow will be 2m 3s shorter.
Waning Crescent, 32% of the Moon is Illuminated
Today
Waning Crescent
Sep 24
New
Oct 1
First Quarter
Oct 8
Full
Oct 15
Last Quarter

Today's Extremes

State Highs State Lows

Community

WunderPhotos

Upload Photos

1,754,200 photos uploaded!

Nearby

Snow Depth

Station Depth Elevation
No new snow has been reported.

Earthquake Activity

City Distance Mag. Time & Date
No recent earthquake activity has been reported nearby.
Minimum magnitude displayed is 2.5.

Coastal Water Temperatures

Place Temperature
No Stations Reporting

Nearby Weather Stations